Time;durP1;ratioP1;P1;durP2;ratioP2;P2;SDS_P1;SDS_P2;PMS_P1;PMS_P2;Temp;Humidity;BMP_temperature;BMP_pressure;BME280_temperature;BME280_humidity;BME280_pressure;Samples;Min_cycle;Max_cycle;Signal;HPM_P1;HPM_P2
2022/07/10 00:01:23;;;;;;;0.10;0.10;;;;;;;;;;5079515;28;20163;-62
2022/07/10 00:03:49;;;;;;;0.00;0.00;;;;;;;;;;5069109;28;20107;-62
2022/07/10 00:06:16;;;;;;;0.00;0.00;;;;;;;;;;5068167;28;20057;-62
2022/07/10 00:08:43;;;;;;;0.00;0.00;;;;;;;;;;5073131;28;20099;-62
2022/07/10 00:11:09;;;;;;;0.00;0.00;;;;;;;;;;5069835;28;20092;-62
2022/07/10 00:13:35;;;;;;;0.00;0.00;;;;;;;;;;5068622;28;20119;-62
2022/07/10 00:16:02;;;;;;;0.00;0.00;;;;;;;;;;5069461;28;20077;-62
2022/07/10 00:18:28;;;;;;;0.00;0.00;;;;;;;;;;5065992;28;20101;-62
2022/07/10 00:20:55;;;;;;;0.00;0.00;;;;;;;;;;5067859;28;20111;-62
2022/07/10 00:23:21;;;;;;;0.00;0.00;;;;;;;;;;5067759;28;20053;-62
2022/07/10 00:25:47;;;;;;;0.00;0.00;;;;;;;;;;5067553;28;20981;-62
2022/07/10 00:28:14;;;;;;;0.00;0.00;;;;;;;;;;5079785;28;21458;-62
2022/07/10 00:30:41;;;;;;;0.00;0.00;;;;;;;;;;5085515;28;20052;-62
2022/07/10 00:33:08;;;;;;;0.00;0.00;;;;;;;;;;5077756;28;20068;-62
2022/07/10 00:35:34;;;;;;;0.00;0.00;;;;;;;;;;5084527;28;20107;-62
2022/07/10 00:38:00;;;;;;;0.00;0.00;;;;;;;;;;5069921;28;20053;-62
2022/07/10 00:40:27;;;;;;;0.00;0.00;;;;;;;;;;5067384;28;20080;-62
2022/07/10 00:42:53;;;;;;;0.00;0.00;;;;;;;;;;5076921;28;20154;-62
2022/07/10 00:45:19;;;;;;;0.00;0.00;;;;;;;;;;5075197;28;20106;-62
2022/07/10 00:47:46;;;;;;;0.20;0.10;;;;;;;;;;5084522;28;20099;-62
2022/07/10 00:50:12;;;;;;;0.00;0.00;;;;;;;;;;5071700;28;20534;-62
2022/07/10 00:52:40;;;;;;;0.00;0.00;;;;;;;;;;5067346;28;20076;-62
2022/07/10 00:55:07;;;;;;;0.00;0.00;;;;;;;;;;5068052;28;20578;-62
2022/07/10 00:57:35;;;;;;;0.00;0.00;;;;;;;;;;5066740;28;20069;-62
2022/07/10 01:00:01;;;;;;;0.00;0.00;;;;;;;;;;5067351;28;20100;-62
2022/07/10 01:02:28;;;;;;;0.00;0.00;;;;;;;;;;5068795;28;20526;-62
2022/07/10 01:04:56;;;;;;;0.00;0.00;;;;;;;;;;5070593;28;20073;-62
2022/07/10 01:07:22;;;;;;;0.00;0.00;;;;;;;;;;5075865;28;20092;-62
2022/07/10 01:09:49;;;;;;;0.00;0.00;;;;;;;;;;5087634;28;20083;-62
2022/07/10 01:12:16;;;;;;;0.00;0.00;;;;;;;;;;5087568;28;20555;-62
2022/07/10 01:14:43;;;;;;;0.00;0.00;;;;;;;;;;5087197;28;20084;-62
2022/07/10 01:17:09;;;;;;;0.00;0.00;;;;;;;;;;5071523;28;20598;-62
2022/07/10 01:19:36;;;;;;;0.00;0.00;;;;;;;;;;5085439;28;20056;-62
2022/07/10 01:22:02;;;;;;;0.00;0.00;;;;;;;;;;5066805;28;20213;-62
2022/07/10 01:24:29;;;;;;;0.00;0.00;;;;;;;;;;5066660;28;20057;-62
2022/07/10 01:26:55;;;;;;;0.00;0.00;;;;;;;;;;5072407;28;20118;-62
2022/07/10 01:29:22;;;;;;;0.00;0.00;;;;;;;;;;5079461;28;20049;-61
2022/07/10 01:31:48;;;;;;;0.00;0.00;;;;;;;;;;5081326;28;20572;-62
2022/07/10 01:34:22;;;;;;;0.00;0.00;;;;;;;;;;5081608;28;20063;-61
2022/07/10 01:36:48;;;;;;;0.00;0.00;;;;;;;;;;5074847;28;20049;-61
2022/07/10 01:39:14;;;;;;;0.00;0.00;;;;;;;;;;5070175;28;20110;-61
2022/07/10 01:41:41;;;;;;;0.00;0.00;;;;;;;;;;5070749;28;20486;-61
2022/07/10 01:44:07;;;;;;;0.00;0.00;;;;;;;;;;5067365;28;20213;-59
2022/07/10 01:46:33;;;;;;;0.00;0.00;;;;;;;;;;5082168;28;20060;-61
2022/07/10 01:49:00;;;;;;;0.00;0.00;;;;;;;;;;5074585;28;20115;-61
2022/07/10 01:51:26;;;;;;;0.00;0.00;;;;;;;;;;5076626;28;20112;-61
2022/07/10 01:53:53;;;;;;;0.00;0.00;;;;;;;;;;5071483;28;20147;-62
2022/07/10 01:56:19;;;;;;;0.00;0.00;;;;;;;;;;5069777;28;20045;-61
2022/07/10 01:58:45;;;;;;;0.00;0.00;;;;;;;;;;5071040;28;20114;-61
2022/07/10 02:01:12;;;;;;;0.00;0.00;;;;;;;;;;5070664;28;20135;-61
2022/07/10 02:06:23;;;;;;;0.00;0.00;;;;;;;;;;5078971;28;20565;-61
2022/07/10 02:08:50;;;;;;;0.00;0.00;;;;;;;;;;5070426;28;20115;-61
2022/07/10 02:11:16;;;;;;;0.00;0.00;;;;;;;;;;5070237;28;20052;-61
2022/07/10 02:13:42;;;;;;;0.00;0.00;;;;;;;;;;5069619;28;20057;-61
2022/07/10 02:16:10;;;;;;;0.00;0.00;;;;;;;;;;5075347;28;20110;-61
2022/07/10 02:18:37;;;;;;;0.00;0.00;;;;;;;;;;5072194;28;20053;-61
2022/07/10 02:21:04;;;;;;;0.00;0.00;;;;;;;;;;5069750;28;20136;-61
2022/07/10 02:23:30;;;;;;;0.00;0.00;;;;;;;;;;5083399;28;20126;-62
2022/07/10 02:25:57;;;;;;;0.00;0.00;;;;;;;;;;5088640;28;20048;-61
2022/07/10 02:28:23;;;;;;;0.00;0.00;;;;;;;;;;5073045;28;20090;-61
2022/07/10 02:30:49;;;;;;;0.00;0.00;;;;;;;;;;5090372;28;20048;-62
2022/07/10 02:33:16;;;;;;;0.00;0.00;;;;;;;;;;5089959;28;20514;-61
2022/07/10 02:35:42;;;;;;;0.00;0.00;;;;;;;;;;5088725;28;20871;-61
2022/07/10 02:38:08;;;;;;;0.00;0.00;;;;;;;;;;5085254;28;20080;-61
2022/07/10 02:40:35;;;;;;;0.00;0.00;;;;;;;;;;5070198;28;20060;-62
2022/07/10 02:43:01;;;;;;;0.00;0.00;;;;;;;;;;5072531;28;20566;-61
2022/07/10 02:45:27;;;;;;;0.00;0.00;;;;;;;;;;5073277;28;20052;-61
2022/07/10 02:47:54;;;;;;;0.00;0.00;;;;;;;;;;5067312;28;20121;-61
2022/07/10 02:50:20;;;;;;;0.00;0.00;;;;;;;;;;5068581;28;20090;-62
2022/07/10 02:52:47;;;;;;;0.00;0.00;;;;;;;;;;5077945;28;20057;-61
2022/07/10 02:55:13;;;;;;;0.00;0.00;;;;;;;;;;5089316;28;20103;-61
2022/07/10 02:57:39;;;;;;;0.00;0.00;;;;;;;;;;5088404;28;20522;-61
2022/07/10 03:00:06;;;;;;;0.00;0.00;;;;;;;;;;5068037;28;20144;-61
2022/07/10 03:02:32;;;;;;;0.00;0.00;;;;;;;;;;5067378;28;20057;-61
2022/07/10 03:04:59;;;;;;;0.05;0.05;;;;;;;;;;5068387;28;20049;-62
2022/07/10 03:07:25;;;;;;;0.00;0.00;;;;;;;;;;5082479;28;20075;-61
2022/07/10 03:09:51;;;;;;;0.00;0.00;;;;;;;;;;5089433;28;20052;-61
2022/07/10 03:12:18;;;;;;;0.00;0.00;;;;;;;;;;5086875;28;20161;-61
2022/07/10 03:14:44;;;;;;;0.00;0.00;;;;;;;;;;5067307;28;20581;-61
2022/07/10 03:17:10;;;;;;;0.00;0.00;;;;;;;;;;5069707;28;20080;-61
2022/07/10 03:19:38;;;;;;;0.00;0.00;;;;;;;;;;5087188;28;20503;-61
2022/07/10 03:22:04;;;;;;;0.00;0.00;;;;;;;;;;5087716;28;20567;-61
2022/07/10 03:24:30;;;;;;;0.00;0.00;;;;;;;;;;5085092;28;20214;-61
2022/07/10 03:26:57;;;;;;;0.00;0.00;;;;;;;;;;5077212;28;20052;-61
2022/07/10 03:29:23;;;;;;;0.00;0.00;;;;;;;;;;5088094;28;20076;-61
2022/07/10 03:31:49;;;;;;;0.00;0.00;;;;;;;;;;5077778;28;20119;-61
2022/07/10 03:34:16;;;;;;;0.00;0.00;;;;;;;;;;5068233;28;20060;-61
2022/07/10 03:36:42;;;;;;;0.00;0.00;;;;;;;;;;5080580;28;20481;-61
2022/07/10 03:39:09;;;;;;;0.00;0.00;;;;;;;;;;5068209;28;20115;-61
2022/07/10 03:41:36;;;;;;;0.00;0.00;;;;;;;;;;5034063;28;1075829;-61
2022/07/10 03:44:02;;;;;;;0.00;0.00;;;;;;;;;;5068789;28;20142;-61
2022/07/10 03:46:29;;;;;;;0.00;0.00;;;;;;;;;;5074316;28;20568;-61
2022/07/10 03:48:55;;;;;;;0.00;0.00;;;;;;;;;;5084123;28;20160;-61
2022/07/10 03:51:21;;;;;;;0.00;0.00;;;;;;;;;;5072085;28;20514;-62
2022/07/10 03:53:48;;;;;;;0.00;0.00;;;;;;;;;;5089232;28;20056;-62
2022/07/10 03:57:53;;;;;;;0.00;0.00;;;;;;;;;;5088953;28;20664;-61
2022/07/10 03:59:01;;;;;;;0.00;0.00;;;;;;;;;;5077714;28;20569;-61
2022/07/10 04:01:27;;;;;;;0.00;0.00;;;;;;;;;;5075347;28;20045;-61
2022/07/10 04:03:53;;;;;;;0.00;0.00;;;;;;;;;;5082823;28;20059;-61
2022/07/10 04:06:20;;;;;;;0.00;0.00;;;;;;;;;;5088771;28;20127;-61
2022/07/10 04:08:46;;;;;;;0.00;0.00;;;;;;;;;;5088068;28;20048;-62
2022/07/10 04:11:13;;;;;;;0.00;0.00;;;;;;;;;;5087267;28;20202;-61
2022/07/10 04:13:39;;;;;;;0.00;0.00;;;;;;;;;;5079181;28;20146;-61
2022/07/10 04:16:06;;;;;;;0.00;0.00;;;;;;;;;;5076703;28;20545;-61
2022/07/10 04:18:32;;;;;;;0.00;0.00;;;;;;;;;;5080409;28;20052;-60
2022/07/10 04:20:58;;;;;;;0.00;0.00;;;;;;;;;;5077622;28;20125;-61
2022/07/10 04:23:25;;;;;;;0.00;0.00;;;;;;;;;;5073937;28;20110;-61
2022/07/10 04:25:51;;;;;;;0.00;0.00;;;;;;;;;;5068560;28;20052;-61
2022/07/10 04:28:17;;;;;;;0.00;0.00;;;;;;;;;;5068699;28;20053;-61
2022/07/10 04:30:44;;;;;;;0.00;0.00;;;;;;;;;;5081359;28;20153;-61
2022/07/10 04:33:10;;;;;;;0.00;0.00;;;;;;;;;;5086840;28;20649;-62
2022/07/10 04:35:38;;;;;;;0.00;0.00;;;;;;;;;;5074153;28;20581;-62
2022/07/10 04:38:04;;;;;;;0.00;0.00;;;;;;;;;;5084045;28;20053;-61
2022/07/10 04:40:30;;;;;;;0.00;0.00;;;;;;;;;;5068191;28;20057;-61
2022/07/10 04:42:57;;;;;;;0.00;0.00;;;;;;;;;;5084576;28;20098;-61
2022/07/10 04:45:23;;;;;;;0.00;0.00;;;;;;;;;;5067273;28;20117;-61
2022/07/10 04:47:50;;;;;;;0.00;0.00;;;;;;;;;;5069023;28;20057;-61
2022/07/10 04:50:16;;;;;;;0.00;0.00;;;;;;;;;;5079828;28;20657;-61
2022/07/10 04:52:42;;;;;;;0.20;0.17;;;;;;;;;;5084465;28;20052;-61
2022/07/10 04:55:09;;;;;;;0.00;0.00;;;;;;;;;;5088378;28;20103;-60
2022/07/10 04:57:35;;;;;;;0.00;0.00;;;;;;;;;;5067898;28;20088;-61
2022/07/10 05:00:03;;;;;;;0.00;0.00;;;;;;;;;;5068858;28;20053;-61
2022/07/10 05:02:29;;;;;;;0.00;0.00;;;;;;;;;;5067883;28;20073;-62
2022/07/10 05:04:55;;;;;;;0.00;0.00;;;;;;;;;;5069724;28;20516;-61
2022/07/10 05:07:22;;;;;;;0.10;0.10;;;;;;;;;;5073342;28;20115;-61
2022/07/10 05:09:48;;;;;;;0.00;0.00;;;;;;;;;;5067781;28;20546;-61
2022/07/10 05:12:14;;;;;;;0.00;0.00;;;;;;;;;;5069382;28;20089;-61
2022/07/10 05:14:41;;;;;;;0.00;0.00;;;;;;;;;;5077805;28;20499;-61
2022/07/10 05:17:07;;;;;;;0.00;0.00;;;;;;;;;;5075966;28;20049;-61
2022/07/10 05:19:33;;;;;;;0.00;0.00;;;;;;;;;;5087643;28;20102;-61
2022/07/10 05:22:00;;;;;;;0.00;0.00;;;;;;;;;;5077523;28;20163;-62
2022/07/10 05:24:26;;;;;;;0.00;0.00;;;;;;;;;;5067134;28;20146;-61
2022/07/10 05:26:52;;;;;;;0.00;0.00;;;;;;;;;;5069992;28;20053;-61
2022/07/10 05:29:19;;;;;;;0.00;0.00;;;;;;;;;;5084990;28;20086;-61
2022/07/10 05:31:45;;;;;;;0.00;0.00;;;;;;;;;;5075942;28;20076;-61
2022/07/10 05:34:11;;;;;;;0.00;0.00;;;;;;;;;;5088630;28;20056;-61
2022/07/10 05:36:38;;;;;;;0.00;0.00;;;;;;;;;;5076178;28;20507;-61
2022/07/10 05:39:04;;;;;;;0.00;0.00;;;;;;;;;;5067282;28;20553;-61
2022/07/10 05:41:32;;;;;;;0.00;0.00;;;;;;;;;;5068112;28;20155;-61
2022/07/10 05:44:02;;;;;;;0.00;0.00;;;;;;;;;;5087927;28;20060;-62
2022/07/10 05:46:28;;;;;;;0.00;0.00;;;;;;;;;;5088065;28;20056;-62
2022/07/10 05:48:55;;;;;;;0.00;0.00;;;;;;;;;;5075505;28;20056;-61
2022/07/10 05:51:22;;;;;;;0.00;0.00;;;;;;;;;;5067544;28;20061;-61
2022/07/10 05:53:57;;;;;;;0.00;0.00;;;;;;;;;;5067147;28;20430;-61
2022/07/10 05:56:24;;;;;;;0.00;0.00;;;;;;;;;;5067396;28;20053;-61
2022/07/10 05:58:50;;;;;;;0.00;0.00;;;;;;;;;;5068443;28;20057;-61
2022/07/10 06:01:17;;;;;;;0.00;0.00;;;;;;;;;;5067628;28;20057;-62
2022/07/10 06:03:43;;;;;;;0.00;0.00;;;;;;;;;;5066869;28;20064;-61
2022/07/10 06:06:10;;;;;;;0.00;0.00;;;;;;;;;;5067868;28;20060;-61
2022/07/10 06:08:36;;;;;;;0.00;0.00;;;;;;;;;;5067534;28;20107;-61
2022/07/10 06:11:03;;;;;;;0.00;0.00;;;;;;;;;;5067709;28;20059;-61
2022/07/10 06:13:29;;;;;;;0.00;0.00;;;;;;;;;;5067396;28;20119;-62
2022/07/10 06:15:56;;;;;;;0.00;0.00;;;;;;;;;;5086934;28;20507;-62
2022/07/10 06:18:22;;;;;;;0.00;0.00;;;;;;;;;;5082091;28;20063;-62
2022/07/10 06:20:48;;;;;;;0.00;0.00;;;;;;;;;;5087981;28;20513;-62
2022/07/10 06:23:15;;;;;;;0.00;0.00;;;;;;;;;;5087819;28;20613;-61
2022/07/10 06:25:41;;;;;;;0.00;0.00;;;;;;;;;;5087703;28;20487;-62
2022/07/10 06:28:07;;;;;;;0.00;0.00;;;;;;;;;;5087562;28;20056;-61
2022/07/10 06:30:34;;;;;;;0.00;0.00;;;;;;;;;;5086460;28;20607;-62
2022/07/10 06:33:00;;;;;;;0.00;0.00;;;;;;;;;;5093735;28;20118;-61
2022/07/10 06:35:27;;;;;;;0.00;0.00;;;;;;;;;;5090817;28;20056;-61
2022/07/10 06:37:53;;;;;;;0.00;0.00;;;;;;;;;;5079727;28;20593;-62
2022/07/10 06:40:20;;;;;;;0.00;0.00;;;;;;;;;;5076039;28;20076;-62
2022/07/10 06:42:46;;;;;;;0.00;0.00;;;;;;;;;;5077761;28;20119;-63
2022/07/10 06:45:13;;;;;;;0.00;0.00;;;;;;;;;;5069833;28;20531;-62
2022/07/10 06:47:59;;;;;;;0.00;0.00;;;;;;;;;;5069391;28;20420;-61
2022/07/10 06:50:26;;;;;;;0.00;0.00;;;;;;;;;;5069813;28;20053;-61
2022/07/10 06:52:52;;;;;;;0.00;0.00;;;;;;;;;;5070090;28;20061;-62
2022/07/10 06:55:19;;;;;;;0.00;0.00;;;;;;;;;;5070387;28;20057;-61
2022/07/10 06:57:45;;;;;;;0.00;0.00;;;;;;;;;;5070190;28;20073;-61
2022/07/10 07:00:12;;;;;;;0.00;0.00;;;;;;;;;;5070324;28;20085;-61
2022/07/10 07:02:39;;;;;;;0.00;0.00;;;;;;;;;;5069765;28;20115;-61
2022/07/10 07:05:05;;;;;;;0.00;0.00;;;;;;;;;;5074104;28;20115;-62
2022/07/10 07:07:32;;;;;;;0.00;0.00;;;;;;;;;;5071844;28;20057;-61
2022/07/10 07:09:58;;;;;;;0.00;0.00;;;;;;;;;;5069243;28;20110;-62
2022/07/10 07:12:24;;;;;;;0.00;0.00;;;;;;;;;;5068222;28;20049;-61
2022/07/10 07:14:51;;;;;;;0.00;0.00;;;;;;;;;;5074998;28;20057;-61
2022/07/10 07:17:22;;;;;;;0.00;0.00;;;;;;;;;;5072211;28;20511;-62
2022/07/10 07:25:18;;;;;;;0.00;0.00;;;;;;;;;;5072806;28;20094;-66
2022/07/10 07:27:45;;;;;;;0.00;0.00;;;;;;;;;;5089756;28;20087;-66
2022/07/10 07:30:14;;;;;;;0.05;0.05;;;;;;;;;;5089751;28;20502;-65
2022/07/10 07:32:41;;;;;;;0.00;0.00;;;;;;;;;;5089280;28;20052;-64
2022/07/10 07:35:08;;;;;;;0.00;0.00;;;;;;;;;;5090328;28;20084;-63
2022/07/10 07:37:35;;;;;;;0.00;0.00;;;;;;;;;;5089975;28;20913;-65
2022/07/10 07:40:01;;;;;;;0.00;0.00;;;;;;;;;;5089883;28;20060;-65
2022/07/10 07:42:27;;;;;;;0.00;0.00;;;;;;;;;;5077610;28;20133;-62
2022/07/10 07:44:54;;;;;;;0.00;0.00;;;;;;;;;;5068193;28;20135;-61
2022/07/10 07:47:20;;;;;;;0.00;0.00;;;;;;;;;;5068921;28;20130;-61
2022/07/10 07:49:46;;;;;;;0.00;0.00;;;;;;;;;;5071861;28;20376;-60
2022/07/10 07:52:14;;;;;;;0.00;0.00;;;;;;;;;;5078812;28;20431;-61
2022/07/10 07:54:40;;;;;;;0.00;0.00;;;;;;;;;;5072751;28;20060;-60
2022/07/10 07:57:06;;;;;;;0.00;0.00;;;;;;;;;;5073148;28;20092;-60
2022/07/10 07:59:33;;;;;;;0.00;0.00;;;;;;;;;;5084223;28;20510;-59
2022/07/10 08:01:59;;;;;;;0.00;0.00;;;;;;;;;;5087777;28;20052;-60
2022/07/10 08:04:26;;;;;;;0.00;0.00;;;;;;;;;;5084771;28;20057;-60
2022/07/10 08:06:53;;;;;;;0.00;0.00;;;;;;;;;;5087115;28;20466;-60
2022/07/10 08:09:20;;;;;;;0.00;0.00;;;;;;;;;;5085850;28;20608;-60
2022/07/10 08:11:46;;;;;;;0.00;0.00;;;;;;;;;;5080134;28;20605;-61
2022/07/10 08:14:14;;;;;;;0.00;0.00;;;;;;;;;;5085321;28;20130;-61
2022/07/10 08:16:40;;;;;;;0.00;0.00;;;;;;;;;;5089426;28;20060;-61
2022/07/10 08:19:07;;;;;;;0.00;0.00;;;;;;;;;;5089301;28;20941;-61
2022/07/10 08:21:34;;;;;;;0.00;0.00;;;;;;;;;;5069456;28;20555;-61
2022/07/10 08:24:00;;;;;;;0.00;0.00;;;;;;;;;;5086015;28;20134;-61
2022/07/10 08:26:26;;;;;;;0.00;0.00;;;;;;;;;;5085999;28;20056;-60
2022/07/10 08:28:53;;;;;;;0.00;0.00;;;;;;;;;;5069288;28;20119;-61
2022/07/10 08:31:19;;;;;;;0.00;0.00;;;;;;;;;;5068925;28;20055;-61
2022/07/10 08:33:46;;;;;;;0.00;0.00;;;;;;;;;;5072661;28;21118;-61
2022/07/10 08:36:12;;;;;;;0.00;0.00;;;;;;;;;;5089353;28;20106;-60
2022/07/10 08:38:59;;;;;;;0.00;0.00;;;;;;;;;;5088147;28;20086;-61
2022/07/10 08:41:26;;;;;;;0.00;0.00;;;;;;;;;;5086644;28;20091;-60
2022/07/10 08:43:52;;;;;;;0.10;0.10;;;;;;;;;;5077148;28;20103;-61
2022/07/10 08:46:19;;;;;;;0.00;0.00;;;;;;;;;;5073160;28;20056;-61
2022/07/10 08:48:47;;;;;;;0.00;0.00;;;;;;;;;;5070805;28;20049;-61
2022/07/10 08:51:16;;;;;;;0.00;0.00;;;;;;;;;;5068840;28;20519;-61
2022/07/10 08:53:44;;;;;;;0.00;0.00;;;;;;;;;;5075318;28;20088;-61
2022/07/10 08:56:10;;;;;;;0.00;0.00;;;;;;;;;;5083947;28;20098;-62
2022/07/10 08:58:38;;;;;;;0.00;0.00;;;;;;;;;;5086235;28;20063;-61
2022/07/10 09:01:04;;;;;;;0.00;0.00;;;;;;;;;;5087644;28;20542;-61
2022/07/10 09:03:31;;;;;;;0.00;0.00;;;;;;;;;;5086128;28;20103;-61
2022/07/10 09:05:57;;;;;;;0.00;0.00;;;;;;;;;;5088851;28;20052;-61
2022/07/10 09:08:32;;;;;;;0.05;0.05;;;;;;;;;;5084007;28;20138;-61
2022/07/10 09:11:18;;;;;;;0.00;0.00;;;;;;;;;;5088163;28;20052;-61
2022/07/10 09:13:48;;;;;;;0.00;0.00;;;;;;;;;;5078482;28;20049;-61
2022/07/10 09:16:41;;;;;;;0.00;0.00;;;;;;;;;;5068255;28;20057;-61
2022/07/10 09:19:24;;;;;;;0.00;0.00;;;;;;;;;;5074971;28;20071;-61
2022/07/10 09:21:51;;;;;;;0.00;0.00;;;;;;;;;;5088154;28;20129;-60
2022/07/10 09:24:19;;;;;;;0.00;0.00;;;;;;;;;;5072073;28;20597;-60
2022/07/10 09:26:48;;;;;;;0.00;0.00;;;;;;;;;;5068119;28;20069;-60
2022/07/10 09:29:14;;;;;;;0.00;0.00;;;;;;;;;;5080568;28;20511;-61
2022/07/10 09:31:53;;;;;;;0.00;0.00;;;;;;;;;;5087974;28;20110;-60
2022/07/10 09:34:39;;;;;;;0.00;0.00;;;;;;;;;;5088431;28;20056;-61
2022/07/10 09:37:18;;;;;;;0.00;0.00;;;;;;;;;;5087283;28;20106;-61
2022/07/10 09:40:10;;;;;;;0.00;0.00;;;;;;;;;;5070405;28;20084;-60
2022/07/10 09:42:38;;;;;;;0.00;0.00;;;;;;;;;;5079626;28;20052;-60
2022/07/10 09:45:14;;;;;;;0.00;0.00;;;;;;;;;;5087423;28;20202;-61
2022/07/10 09:47:42;;;;;;;0.00;0.00;;;;;;;;;;5084955;28;20060;-61
2022/07/10 09:50:19;;;;;;;0.00;0.00;;;;;;;;;;5070262;28;20110;-60
2022/07/10 09:52:45;;;;;;;0.00;0.00;;;;;;;;;;5067811;28;20572;-60
2022/07/10 09:55:15;;;;;;;0.00;0.00;;;;;;;;;;5067472;28;20063;-61
2022/07/10 09:57:43;;;;;;;0.00;0.00;;;;;;;;;;5067743;28;20053;-60
2022/07/10 10:00:10;;;;;;;0.00;0.00;;;;;;;;;;5078448;28;20056;-60
2022/07/10 10:02:38;;;;;;;0.00;0.00;;;;;;;;;;5072734;28;20076;-60
2022/07/10 10:05:05;;;;;;;0.00;0.00;;;;;;;;;;5069923;28;20486;-61
2022/07/10 10:07:34;;;;;;;0.00;0.00;;;;;;;;;;5080378;28;20060;-60
2022/07/10 10:10:01;;;;;;;0.03;0.03;;;;;;;;;;5090002;28;20056;-60
2022/07/10 10:12:35;;;;;;;0.00;0.00;;;;;;;;;;5088830;28;20048;-59
2022/07/10 10:15:02;;;;;;;0.00;0.00;;;;;;;;;;5088396;28;20056;-60
2022/07/10 10:17:28;;;;;;;0.00;0.00;;;;;;;;;;5081209;28;20075;-61
2022/07/10 10:22:40;;;;;;;0.00;0.00;;;;;;;;;;5090366;28;20049;-60
2022/07/10 10:25:07;;;;;;;0.10;0.10;;;;;;;;;;5089310;28;20056;-60
2022/07/10 10:27:33;;;;;;;0.00;0.00;;;;;;;;;;5087747;28;20102;-60
2022/07/10 10:30:00;;;;;;;0.00;0.00;;;;;;;;;;5090902;28;20048;-60
2022/07/10 10:32:27;;;;;;;0.00;0.00;;;;;;;;;;5071536;28;20123;-61
2022/07/10 10:34:57;;;;;;;0.00;0.00;;;;;;;;;;5069378;28;20081;-61
2022/07/10 10:37:42;;;;;;;0.08;0.08;;;;;;;;;;5090508;28;20106;-60
2022/07/10 10:40:09;;;;;;;0.00;0.00;;;;;;;;;;5089640;28;20057;-61
2022/07/10 10:42:39;;;;;;;0.10;0.10;;;;;;;;;;5087778;28;20075;-61
2022/07/10 10:45:27;;;;;;;0.00;0.00;;;;;;;;;;5089377;28;20568;-60
2022/07/10 10:48:00;;;;;;;0.00;0.00;;;;;;;;;;5090725;28;20052;-60
2022/07/10 10:50:48;;;;;;;0.00;0.00;;;;;;;;;;5086217;28;20049;-60
2022/07/10 10:53:27;;;;;;;0.00;0.00;;;;;;;;;;5090145;28;20059;-60
2022/07/10 10:56:14;;;;;;;0.00;0.00;;;;;;;;;;5087104;28;20048;-60
2022/07/10 10:58:41;;;;;;;0.00;0.00;;;;;;;;;;5086672;28;20056;-60
2022/07/10 11:01:20;;;;;;;0.00;0.00;;;;;;;;;;5085939;28;20057;-60
2022/07/10 11:04:05;;;;;;;0.00;0.00;;;;;;;;;;5090909;28;20048;-60
2022/07/10 11:06:42;;;;;;;0.00;0.00;;;;;;;;;;5089048;28;20178;-60
2022/07/10 11:09:24;;;;;;;0.00;0.00;;;;;;;;;;5090498;28;20088;-60
2022/07/10 11:12:01;;;;;;;0.00;0.00;;;;;;;;;;5081447;28;20517;-60
2022/07/10 11:14:28;;;;;;;0.00;0.00;;;;;;;;;;5069707;28;20052;-60
2022/07/10 11:16:55;;;;;;;0.00;0.00;;;;;;;;;;5081727;28;20055;-60
2022/07/10 11:19:23;;;;;;;0.00;0.00;;;;;;;;;;5089797;28;20080;-60
2022/07/10 11:21:55;;;;;;;0.00;0.00;;;;;;;;;;5087502;28;20083;-60
2022/07/10 11:24:33;;;;;;;0.00;0.00;;;;;;;;;;5090216;28;20058;-60
2022/07/10 11:27:09;;;;;;;0.05;0.05;;;;;;;;;;5088449;28;20111;-60
2022/07/10 11:29:37;;;;;;;0.00;0.00;;;;;;;;;;5085388;28;20049;-61
2022/07/10 11:32:04;;;;;;;0.00;0.00;;;;;;;;;;5089928;28;20088;-60
2022/07/10 11:34:36;;;;;;;0.00;0.00;;;;;;;;;;5089605;28;20064;-60
2022/07/10 11:37:12;;;;;;;0.00;0.00;;;;;;;;;;5086265;28;20084;-61
2022/07/10 11:39:39;;;;;;;0.00;0.00;;;;;;;;;;5087020;28;20048;-61
2022/07/10 11:42:06;;;;;;;0.00;0.00;;;;;;;;;;5087053;28;20087;-60
2022/07/10 11:44:33;;;;;;;0.00;0.00;;;;;;;;;;5089376;28;20137;-60
2022/07/10 11:47:00;;;;;;;0.00;0.00;;;;;;;;;;5085859;28;20052;-60
2022/07/10 11:49:27;;;;;;;0.00;0.00;;;;;;;;;;5090006;28;20056;-60
2022/07/10 11:52:03;;;;;;;0.00;0.00;;;;;;;;;;5083455;28;20063;-60
2022/07/10 11:54:29;;;;;;;0.00;0.00;;;;;;;;;;5089624;28;20056;-60
2022/07/10 11:56:56;;;;;;;0.00;0.00;;;;;;;;;;5076490;28;20084;-60
2022/07/10 11:59:26;;;;;;;0.00;0.00;;;;;;;;;;5069261;28;20053;-60
2022/07/10 12:01:54;;;;;;;0.00;0.00;;;;;;;;;;5070923;28;20084;-60
2022/07/10 12:04:24;;;;;;;0.00;0.00;;;;;;;;;;5069087;28;20053;-61
2022/07/10 12:06:51;;;;;;;0.00;0.00;;;;;;;;;;5079841;28;20056;-60
2022/07/10 12:09:19;;;;;;;0.00;0.00;;;;;;;;;;5088910;28;21012;-60
2022/07/10 12:12:02;;;;;;;0.00;0.00;;;;;;;;;;5088354;28;21401;-60
2022/07/10 12:14:29;;;;;;;0.00;0.00;;;;;;;;;;5088990;28;20056;-61
2022/07/10 12:16:56;;;;;;;0.00;0.00;;;;;;;;;;5074722;28;20052;-61
2022/07/10 12:19:30;;;;;;;0.00;0.00;;;;;;;;;;5069050;28;20607;-60
2022/07/10 12:21:58;;;;;;;0.00;0.00;;;;;;;;;;5091934;28;20062;-60
2022/07/10 12:24:24;;;;;;;0.00;0.00;;;;;;;;;;5074411;27;20138;-60
2022/07/10 12:27:00;;;;;;;0.03;0.03;;;;;;;;;;5077823;28;20511;-60
2022/07/10 12:29:27;;;;;;;0.00;0.00;;;;;;;;;;5087635;28;20056;-61
2022/07/10 12:31:58;;;;;;;0.00;0.00;;;;;;;;;;5088549;28;20463;-60
2022/07/10 12:34:39;;;;;;;0.00;0.00;;;;;;;;;;5085859;28;20056;-61
2022/07/10 12:37:07;;;;;;;0.00;0.00;;;;;;;;;;5080337;28;20110;-60
2022/07/10 12:39:34;;;;;;;;;;;;;;;;;;5080294;28;20503;-59
2022/07/10 12:42:04;;;;;;;0.00;0.00;;;;;;;;;;5076884;28;43647;-61
2022/07/10 12:44:46;;;;;;;0.00;0.00;;;;;;;;;;5088094;28;20048;-61
2022/07/10 12:47:14;;;;;;;0.00;0.00;;;;;;;;;;5086957;28;20063;-61
2022/07/10 12:49:53;;;;;;;0.00;0.00;;;;;;;;;;5086698;28;20549;-61
2022/07/10 12:52:21;;;;;;;0.00;0.00;;;;;;;;;;5088099;28;20052;-61
2022/07/10 12:55:10;;;;;;;0.00;0.00;;;;;;;;;;5088900;28;20179;-60
2022/07/10 12:57:47;;;;;;;0.00;0.00;;;;;;;;;;5087713;28;20577;-61
2022/07/10 13:00:14;;;;;;;0.00;0.00;;;;;;;;;;5078262;28;20658;-60
2022/07/10 13:02:41;;;;;;;0.00;0.00;;;;;;;;;;5088756;28;20060;-61
2022/07/10 13:05:07;;;;;;;0.00;0.00;;;;;;;;;;5083086;28;20060;-61
2022/07/10 13:07:35;;;;;;;0.00;0.00;;;;;;;;;;5076234;28;20053;-61
2022/07/10 13:10:02;;;;;;;0.00;0.00;;;;;;;;;;5089214;28;20091;-61
2022/07/10 13:12:30;;;;;;;0.00;0.00;;;;;;;;;;5088639;28;20540;-61
2022/07/10 13:14:57;;;;;;;0.00;0.00;;;;;;;;;;5080873;28;20104;-62
2022/07/10 13:17:23;;;;;;;0.00;0.00;;;;;;;;;;5082561;28;20049;-63
2022/07/10 13:19:50;;;;;;;0.00;0.00;;;;;;;;;;5069868;28;20103;-61
2022/07/10 13:22:17;;;;;;;0.00;0.00;;;;;;;;;;5079929;28;20118;-60
2022/07/10 13:24:44;;;;;;;0.00;0.00;;;;;;;;;;5087325;28;20515;-61
2022/07/10 13:27:10;;;;;;;0.00;0.00;;;;;;;;;;5087610;28;20072;-61
2022/07/10 13:29:36;;;;;;;0.00;0.00;;;;;;;;;;5085918;28;20060;-60
2022/07/10 13:32:03;;;;;;;0.00;0.00;;;;;;;;;;5088085;28;20106;-62
2022/07/10 13:34:30;;;;;;;0.00;0.00;;;;;;;;;;5085591;28;20045;-61
2022/07/10 13:36:56;;;;;;;0.00;0.00;;;;;;;;;;5080667;28;20102;-60
2022/07/10 13:39:22;;;;;;;0.00;0.00;;;;;;;;;;5087202;28;20057;-61
2022/07/10 13:41:49;;;;;;;0.00;0.00;;;;;;;;;;5086977;28;20635;-61
2022/07/10 13:44:15;;;;;;;0.00;0.00;;;;;;;;;;5091023;28;20501;-61
2022/07/10 13:46:41;;;;;;;0.00;0.00;;;;;;;;;;5091545;28;20059;-61
2022/07/10 13:49:08;;;;;;;0.00;0.00;;;;;;;;;;5089266;28;20542;-61
2022/07/10 13:51:34;;;;;;;0.00;0.00;;;;;;;;;;5089519;28;20713;-61
2022/07/10 13:54:01;;;;;;;0.00;0.00;;;;;;;;;;5071616;28;20076;-61
2022/07/10 13:56:27;;;;;;;0.00;0.00;;;;;;;;;;5085440;28;20103;-61
2022/07/10 13:58:53;;;;;;;0.00;0.00;;;;;;;;;;5070847;28;20057;-61
2022/07/10 14:01:21;;;;;;;0.00;0.00;;;;;;;;;;5070953;28;20057;-60
2022/07/10 14:03:48;;;;;;;0.00;0.00;;;;;;;;;;5070138;28;20580;-61
2022/07/10 14:06:14;;;;;;;0.00;0.00;;;;;;;;;;5070322;28;20053;-61
2022/07/10 14:08:40;;;;;;;0.00;0.00;;;;;;;;;;5070676;28;20531;-61
2022/07/10 14:11:07;;;;;;;0.00;0.00;;;;;;;;;;5070395;28;20107;-61
2022/07/10 14:13:35;;;;;;;0.00;0.00;;;;;;;;;;5070060;28;20126;-61
2022/07/10 14:16:02;;;;;;;0.00;0.00;;;;;;;;;;5083048;28;20057;-61
2022/07/10 14:18:37;;;;;;;0.00;0.00;;;;;;;;;;5070161;28;20068;-62
2022/07/10 14:21:05;;;;;;;0.00;0.00;;;;;;;;;;5088593;28;20501;-62
2022/07/10 14:23:34;;;;;;;0.00;0.00;;;;;;;;;;5090940;28;20093;-61
2022/07/10 14:26:00;;;;;;;0.00;0.00;;;;;;;;;;5086100;28;20142;-61
2022/07/10 14:28:27;;;;;;;0.00;0.00;;;;;;;;;;5073185;28;20053;-61
2022/07/10 14:30:54;;;;;;;0.20;0.10;;;;;;;;;;5070833;28;20056;-61
2022/07/10 14:33:20;;;;;;;0.00;0.00;;;;;;;;;;5070453;28;20107;-61
2022/07/10 14:35:47;;;;;;;0.00;0.00;;;;;;;;;;5077856;28;20053;-61
2022/07/10 14:38:13;;;;;;;0.00;0.00;;;;;;;;;;5084570;28;20168;-62
2022/07/10 14:40:39;;;;;;;0.00;0.00;;;;;;;;;;5090152;28;20080;-62
2022/07/10 14:43:06;;;;;;;0.00;0.00;;;;;;;;;;5088275;28;20060;-61
2022/07/10 14:45:32;;;;;;;0.00;0.00;;;;;;;;;;5088307;28;20054;-62
2022/07/10 14:48:18;;;;;;;0.00;0.00;;;;;;;;;;5077980;28;20140;-62
2022/07/10 14:50:45;;;;;;;0.00;0.00;;;;;;;;;;5068665;28;20052;-61
2022/07/10 14:53:11;;;;;;;0.00;0.00;;;;;;;;;;5070657;28;20106;-61
2022/07/10 14:55:38;;;;;;;0.00;0.00;;;;;;;;;;5068943;28;20053;-61
2022/07/10 14:58:04;;;;;;;0.00;0.00;;;;;;;;;;5070508;28;20052;-61
2022/07/10 15:00:30;;;;;;;0.00;0.00;;;;;;;;;;5070028;28;20565;-61